Time;durP1;ratioP1;P1;durP2;ratioP2;P2;SDS_P1;SDS_P2;PMS_P1;PMS_P2;Temp;Humidity;BMP_temperature;BMP_pressure;BME280_temperature;BME280_humidity;BME280_pressure;Samples;Min_cycle;Max_cycle;Signal;HPM_P1;HPM_P2
2023/08/19 00:01:32;;;;;;;10.32;9.32;;;;;;;;;;5026467;28;20214;-74
2023/08/19 00:03:59;;;;;;;9.93;9.20;;;;;;;;;;5024673;28;20029;-74
2023/08/19 00:06:51;;;;;;;9.98;8.98;;;;;;;;;;5028227;28;20061;-74
2023/08/19 00:09:16;;;;;;;10.35;9.40;;;;;;;;;;5027442;28;20041;-74
2023/08/19 00:11:42;;;;;;;9.57;8.98;;;;;;;;;;5027296;28;20067;-74
2023/08/19 00:14:08;;;;;;;9.88;9.18;;;;;;;;;;5026215;28;20041;-74
2023/08/19 00:16:34;;;;;;;9.95;9.25;;;;;;;;;;5027844;28;20045;-74
2023/08/19 00:19:01;;;;;;;10.38;9.43;;;;;;;;;;5012279;28;20033;-74
2023/08/19 00:21:26;;;;;;;10.07;9.30;;;;;;;;;;5024440;28;20033;-74
2023/08/19 00:23:53;;;;;;;10.23;9.43;;;;;;;;;;5009566;28;20119;-74
2023/08/19 00:26:18;;;;;;;10.45;9.60;;;;;;;;;;5027884;28;20029;-74
2023/08/19 00:28:44;;;;;;;10.25;9.55;;;;;;;;;;5024721;28;20037;-74
2023/08/19 00:31:09;;;;;;;10.43;9.63;;;;;;;;;;5026992;28;20037;-74
2023/08/19 00:33:35;;;;;;;9.93;9.23;;;;;;;;;;5009775;28;20107;-74
2023/08/19 00:36:03;;;;;;;9.93;9.20;;;;;;;;;;5059234;28;20037;-74
2023/08/19 00:38:29;;;;;;;9.35;8.75;;;;;;;;;;5025666;28;20047;-74
2023/08/19 00:40:55;;;;;;;10.00;9.10;;;;;;;;;;5029021;28;20029;-74
2023/08/19 00:43:21;;;;;;;10.55;9.35;;;;;;;;;;5021039;28;20144;-73
2023/08/19 00:45:48;;;;;;;9.63;8.82;;;;;;;;;;5024840;28;20523;-74
2023/08/19 00:48:15;;;;;;;10.65;9.77;;;;;;;;;;5026322;28;20045;-74
2023/08/19 00:50:41;;;;;;;10.00;9.25;;;;;;;;;;5026199;28;20079;-74
2023/08/19 00:53:08;;;;;;;10.45;9.65;;;;;;;;;;5024115;28;20099;-74
2023/08/19 00:55:35;;;;;;;10.48;9.20;;;;;;;;;;5025678;28;20037;-74
2023/08/19 00:58:03;;;;;;;9.32;8.63;;;;;;;;;;5025813;28;20037;-74
2023/08/19 01:00:32;;;;;;;10.30;9.60;;;;;;;;;;5009428;28;20048;-74
2023/08/19 01:02:59;;;;;;;10.93;9.90;;;;;;;;;;4992996;28;20064;-74
2023/08/19 01:05:43;;;;;;;10.23;9.43;;;;;;;;;;5027014;28;20037;-74
2023/08/19 01:08:13;;;;;;;10.25;9.55;;;;;;;;;;5026596;28;20496;-74
2023/08/19 01:10:58;;;;;;;10.25;9.52;;;;;;;;;;5007555;28;20046;-74
2023/08/19 01:13:30;;;;;;;10.27;9.30;;;;;;;;;;5026286;28;20041;-74
2023/08/19 01:16:02;;;;;;;12.48;9.52;;;;;;;;;;5025954;28;20037;-74
2023/08/19 01:18:30;;;;;;;10.45;9.55;;;;;;;;;;5028392;28;20090;-74
2023/08/19 01:20:56;;;;;;;10.93;9.88;;;;;;;;;;5024502;28;20516;-74
2023/08/19 01:23:30;;;;;;;11.15;10.13;;;;;;;;;;5025331;28;20037;-74
2023/08/19 01:25:56;;;;;;;10.68;9.88;;;;;;;;;;5024361;28;20477;-74
2023/08/19 01:28:22;;;;;;;11.38;10.18;;;;;;;;;;5026442;28;20411;-74
2023/08/19 01:30:48;;;;;;;10.57;9.57;;;;;;;;;;4992237;28;20564;-74
2023/08/19 01:33:16;;;;;;;11.10;10.27;;;;;;;;;;5009513;28;20420;-74
2023/08/19 01:36:07;;;;;;;10.93;10.05;;;;;;;;;;5024684;28;20034;-74
2023/08/19 01:38:43;;;;;;;11.77;10.65;;;;;;;;;;5025068;28;20029;-74
2023/08/19 01:41:11;;;;;;;13.18;10.65;;;;;;;;;;5025403;28;20061;-74
2023/08/19 01:43:38;;;;;;;;;;;;;;;;;;5010006;28;20041;-74
2023/08/19 01:46:04;;;;;;;10.82;10.02;;;;;;;;;;5025750;28;20055;-74
2023/08/19 01:48:30;;;;;;;11.30;10.25;;;;;;;;;;5024145;28;20037;-74
2023/08/19 01:50:56;;;;;;;11.75;10.65;;;;;;;;;;5025095;28;20025;-74
2023/08/19 01:53:21;;;;;;;11.52;10.50;;;;;;;;;;5008746;28;20033;-74
2023/08/19 01:55:47;;;;;;;10.95;10.15;;;;;;;;;;5022765;28;20068;-74
2023/08/19 01:58:13;;;;;;;11.50;10.43;;;;;;;;;;5025419;28;20037;-74
2023/08/19 02:00:38;;;;;;;11.80;10.60;;;;;;;;;;4990114;28;20054;-74
2023/08/19 02:03:05;;;;;;;11.70;10.57;;;;;;;;;;5023233;28;20041;-74
2023/08/19 02:05:31;;;;;;;12.05;10.98;;;;;;;;;;5024862;28;20041;-74
2023/08/19 02:07:57;;;;;;;12.13;11.23;;;;;;;;;;5009867;28;20132;-74
2023/08/19 02:10:22;;;;;;;11.70;10.70;;;;;;;;;;5025931;28;20227;-74
2023/08/19 02:12:48;;;;;;;11.30;10.50;;;;;;;;;;5025089;28;20033;-74
2023/08/19 02:15:14;;;;;;;12.20;10.98;;;;;;;;;;5024240;28;20307;-74
2023/08/19 02:17:40;;;;;;;11.25;10.45;;;;;;;;;;5024819;28;20512;-74
2023/08/19 02:20:06;;;;;;;12.55;11.52;;;;;;;;;;5008087;28;20036;-73
2023/08/19 02:22:32;;;;;;;11.55;10.52;;;;;;;;;;5020988;28;20412;-73
2023/08/19 02:24:57;;;;;;;12.02;10.48;;;;;;;;;;5024755;28;20041;-74
2023/08/19 02:27:25;;;;;;;11.07;10.27;;;;;;;;;;5008699;28;20098;-73
2023/08/19 02:29:51;;;;;;;11.00;10.18;;;;;;;;;;5005066;28;20037;-73
2023/08/19 02:32:16;;;;;;;11.43;10.40;;;;;;;;;;5024683;28;20029;-73
2023/08/19 02:34:43;;;;;;;11.45;10.43;;;;;;;;;;5024681;28;20052;-73
2023/08/19 02:37:13;;;;;;;11.40;10.48;;;;;;;;;;5009266;28;20053;-73
2023/08/19 02:39:38;;;;;;;11.10;10.30;;;;;;;;;;5007638;28;20040;-74
2023/08/19 02:42:06;;;;;;;12.07;10.95;;;;;;;;;;5006633;28;20033;-73
2023/08/19 02:44:31;;;;;;;11.27;10.48;;;;;;;;;;5024247;28;20480;-73
2023/08/19 02:46:57;;;;;;;11.70;10.73;;;;;;;;;;5007482;28;20041;-73
2023/08/19 02:49:24;;;;;;;10.88;10.07;;;;;;;;;;5008168;28;20040;-73
2023/08/19 02:51:49;;;;;;;13.30;11.50;;;;;;;;;;5010600;28;20044;-73
2023/08/19 02:54:15;;;;;;;12.00;11.00;;;;;;;;;;5023503;28;20037;-74
2023/08/19 02:56:41;;;;;;;11.63;10.73;;;;;;;;;;5024374;28;20044;-73
2023/08/19 02:59:06;;;;;;;11.80;10.65;;;;;;;;;;5007240;28;20030;-73
2023/08/19 03:01:32;;;;;;;11.57;10.65;;;;;;;;;;5006557;28;20037;-73
2023/08/19 03:03:57;;;;;;;11.63;10.52;;;;;;;;;;5023811;28;20039;-73
2023/08/19 03:06:23;;;;;;;11.25;10.45;;;;;;;;;;5024135;28;20244;-74
2023/08/19 03:08:48;;;;;;;11.10;10.20;;;;;;;;;;5005989;28;20133;-73
2023/08/19 03:11:14;;;;;;;11.65;10.82;;;;;;;;;;5023807;28;20036;-73
2023/08/19 03:13:40;;;;;;;11.95;11.00;;;;;;;;;;5005744;28;20052;-74
2023/08/19 03:16:06;;;;;;;12.68;11.45;;;;;;;;;;4990881;28;20034;-72
2023/08/19 03:18:32;;;;;;;11.68;10.80;;;;;;;;;;5023759;28;20068;-74
2023/08/19 03:20:58;;;;;;;11.52;10.50;;;;;;;;;;5022234;28;20068;-72
2023/08/19 03:23:26;;;;;;;12.38;11.05;;;;;;;;;;5021977;28;20084;-73
2023/08/19 03:25:52;;;;;;;11.57;10.60;;;;;;;;;;4987676;28;20128;-72
2023/08/19 03:28:19;;;;;;;11.77;10.77;;;;;;;;;;5020496;28;20067;-73
2023/08/19 03:30:45;;;;;;;11.82;10.73;;;;;;;;;;5020419;28;20132;-73
2023/08/19 03:33:10;;;;;;;12.48;11.43;;;;;;;;;;5023383;28;20600;-73
2023/08/19 03:35:36;;;;;;;11.55;10.55;;;;;;;;;;5008080;28;20033;-73
2023/08/19 03:38:02;;;;;;;12.23;10.98;;;;;;;;;;5024978;28;20029;-73
2023/08/19 03:40:28;;;;;;;11.95;10.82;;;;;;;;;;5006204;28;20064;-73
2023/08/19 03:42:54;;;;;;;12.80;11.55;;;;;;;;;;5025188;28;20834;-72
2023/08/19 03:45:19;;;;;;;11.85;10.40;;;;;;;;;;5025687;28;20053;-74
2023/08/19 03:47:45;;;;;;;12.20;11.07;;;;;;;;;;5004398;28;20037;-73
2023/08/19 03:50:10;;;;;;;11.88;10.88;;;;;;;;;;5009614;28;20045;-72
2023/08/19 03:52:36;;;;;;;11.90;11.00;;;;;;;;;;5011637;28;20048;-73
2023/08/19 03:55:02;;;;;;;12.18;11.13;;;;;;;;;;5031187;28;20036;-73
2023/08/19 03:57:28;;;;;;;11.27;10.48;;;;;;;;;;5023172;28;20040;-73
2023/08/19 03:59:53;;;;;;;12.13;11.05;;;;;;;;;;4992032;28;20030;-74
2023/08/19 04:02:19;;;;;;;11.88;10.45;;;;;;;;;;5027196;28;20034;-73
2023/08/19 04:05:02;;;;;;;12.10;10.95;;;;;;;;;;5023943;28;20079;-71
2023/08/19 04:07:27;;;;;;;12.55;10.98;;;;;;;;;;5024331;28;20026;-72
2023/08/19 04:09:57;;;;;;;12.15;10.68;;;;;;;;;;5015473;28;20041;-72
2023/08/19 04:12:26;;;;;;;12.15;11.35;;;;;;;;;;5010670;28;20044;-72
2023/08/19 04:14:53;;;;;;;13.05;11.40;;;;;;;;;;5024733;28;20033;-72
2023/08/19 04:17:19;;;;;;;11.98;10.98;;;;;;;;;;5010295;28;20120;-72
2023/08/19 04:19:47;;;;;;;12.20;10.88;;;;;;;;;;5026085;28;20112;-72
2023/08/19 04:22:17;;;;;;;12.38;11.07;;;;;;;;;;5023617;28;20026;-71
2023/08/19 04:24:48;;;;;;;11.40;10.43;;;;;;;;;;5024717;28;20132;-72
2023/08/19 04:27:15;;;;;;;13.40;11.15;;;;;;;;;;5026956;28;20041;-72
2023/08/19 04:29:40;;;;;;;11.95;10.85;;;;;;;;;;5010375;28;20045;-72
2023/08/19 04:32:06;;;;;;;14.18;11.07;;;;;;;;;;5024423;28;20037;-72
2023/08/19 04:34:33;;;;;;;11.70;10.50;;;;;;;;;;5010566;28;20484;-72
2023/08/19 04:37:00;;;;;;;12.10;10.90;;;;;;;;;;5026800;28;20061;-72
2023/08/19 04:39:27;;;;;;;11.85;10.93;;;;;;;;;;5024995;28;20255;-72
2023/08/19 04:41:56;;;;;;;11.60;10.70;;;;;;;;;;5010897;28;20037;-72
2023/08/19 04:44:23;;;;;;;11.88;10.95;;;;;;;;;;5010222;28;20049;-71
2023/08/19 04:46:49;;;;;;;12.52;11.13;;;;;;;;;;5026817;28;20437;-72
2023/08/19 04:49:15;;;;;;;11.95;10.80;;;;;;;;;;5009752;28;20033;-72
2023/08/19 04:51:43;;;;;;;13.10;11.30;;;;;;;;;;5006596;28;20570;-72
2023/08/19 04:54:09;;;;;;;14.40;11.32;;;;;;;;;;5025941;28;20030;-71
2023/08/19 04:56:35;;;;;;;12.10;11.20;;;;;;;;;;5006226;28;20079;-72
2023/08/19 04:59:02;;;;;;;13.05;11.73;;;;;;;;;;4992799;28;20029;-71
2023/08/19 05:01:29;;;;;;;12.13;11.15;;;;;;;;;;5024232;28;20408;-72
2023/08/19 05:03:55;;;;;;;12.40;11.20;;;;;;;;;;5058775;28;20432;-72
2023/08/19 05:06:23;;;;;;;12.70;11.55;;;;;;;;;;5025886;28;20116;-72
2023/08/19 05:08:49;;;;;;;11.50;10.65;;;;;;;;;;5010412;28;20454;-72
2023/08/19 05:11:15;;;;;;;12.35;11.13;;;;;;;;;;4991334;28;20042;-72
2023/08/19 05:13:43;;;;;;;12.45;11.43;;;;;;;;;;4994580;28;20029;-72
2023/08/19 05:16:11;;;;;;;12.73;11.80;;;;;;;;;;5024817;28;20065;-72
2023/08/19 05:18:37;;;;;;;12.25;11.15;;;;;;;;;;5010324;28;20079;-72
2023/08/19 05:21:03;;;;;;;15.50;10.93;;;;;;;;;;5026603;28;20038;-72
2023/08/19 05:23:28;;;;;;;12.60;11.55;;;;;;;;;;5008771;28;20037;-71
2023/08/19 05:25:54;;;;;;;12.70;11.50;;;;;;;;;;5027934;28;20060;-72
2023/08/19 05:28:19;;;;;;;13.70;11.35;;;;;;;;;;5027726;28;20045;-72
2023/08/19 05:30:45;;;;;;;13.45;10.70;;;;;;;;;;5026064;28;20290;-72
2023/08/19 05:33:10;;;;;;;12.13;10.68;;;;;;;;;;5025288;28;20048;-72
2023/08/19 05:35:36;;;;;;;12.10;10.75;;;;;;;;;;5025061;28;20037;-72
2023/08/19 05:38:02;;;;;;;11.45;10.57;;;;;;;;;;5027491;28;20029;-72
2023/08/19 05:40:27;;;;;;;10.98;10.10;;;;;;;;;;5009294;28;20065;-71
2023/08/19 05:42:53;;;;;;;10.48;9.50;;;;;;;;;;5025466;28;20377;-72
2023/08/19 05:45:19;;;;;;;11.18;10.02;;;;;;;;;;5026124;28;20513;-72
2023/08/19 05:47:44;;;;;;;10.93;10.13;;;;;;;;;;5026556;28;20048;-73
2023/08/19 05:50:10;;;;;;;11.15;10.25;;;;;;;;;;5008642;28;20497;-72
2023/08/19 05:52:36;;;;;;;11.00;10.05;;;;;;;;;;5026498;28;20420;-73
2023/08/19 05:55:01;;;;;;;10.88;10.07;;;;;;;;;;5026905;28;20064;-73
2023/08/19 05:57:27;;;;;;;11.35;10.45;;;;;;;;;;5026966;28;20074;-73
2023/08/19 05:59:53;;;;;;;11.48;10.20;;;;;;;;;;5024520;28;20492;-73
2023/08/19 06:02:18;;;;;;;11.07;9.85;;;;;;;;;;5025760;28;20037;-73
2023/08/19 06:04:44;;;;;;;10.85;9.95;;;;;;;;;;5025856;28;20235;-73
2023/08/19 06:07:10;;;;;;;10.85;9.95;;;;;;;;;;5009686;28;20041;-73
2023/08/19 06:09:35;;;;;;;12.20;10.27;;;;;;;;;;5023483;28;20048;-73
2023/08/19 06:12:02;;;;;;;10.93;9.77;;;;;;;;;;5026620;28;20040;-73
2023/08/19 06:14:28;;;;;;;15.82;10.27;;;;;;;;;;5025358;28;20045;-73
2023/08/19 06:16:54;;;;;;;10.70;9.73;;;;;;;;;;5009115;28;20443;-73
2023/08/19 06:19:19;;;;;;;10.65;9.75;;;;;;;;;;5024973;28;20029;-73
2023/08/19 06:21:46;;;;;;;11.13;10.18;;;;;;;;;;5026804;28;20041;-73
2023/08/19 06:24:11;;;;;;;10.95;9.95;;;;;;;;;;5024782;28;20048;-73
2023/08/19 06:26:37;;;;;;;10.45;9.57;;;;;;;;;;5024925;28;20033;-73
2023/08/19 06:29:02;;;;;;;10.60;9.70;;;;;;;;;;5027473;28;20037;-73
2023/08/19 06:31:28;;;;;;;9.88;9.05;;;;;;;;;;5008935;28;20041;-73
2023/08/19 06:33:54;;;;;;;10.15;9.25;;;;;;;;;;5023847;28;20047;-73
2023/08/19 06:36:24;;;;;;;9.55;8.75;;;;;;;;;;5026128;28;20123;-73
2023/08/19 06:39:15;;;;;;;8.65;7.95;;;;;;;;;;5015981;28;20067;-73
2023/08/19 06:41:44;;;;;;;9.25;8.00;;;;;;;;;;5021925;28;20053;-74
2023/08/19 06:44:14;;;;;;;8.55;7.90;;;;;;;;;;5023598;28;20067;-73
2023/08/19 06:46:42;;;;;;;9.43;8.52;;;;;;;;;;5023392;28;20331;-74
2023/08/19 06:49:08;;;;;;;10.63;8.30;;;;;;;;;;5025153;28;20543;-74
2023/08/19 06:51:34;;;;;;;9.35;8.55;;;;;;;;;;5007573;28;20037;-74
2023/08/19 06:54:00;;;;;;;10.73;8.48;;;;;;;;;;5025332;28;20051;-74
2023/08/19 06:56:32;;;;;;;11.75;8.15;;;;;;;;;;5025599;28;20295;-73
2023/08/19 06:59:04;;;;;;;9.95;8.00;;;;;;;;;;5005594;28;20094;-73
2023/08/19 07:01:30;;;;;;;9.55;7.97;;;;;;;;;;5025593;28;20140;-72
2023/08/19 07:03:57;;;;;;;8.38;7.35;;;;;;;;;;4994305;28;20048;-73
2023/08/19 07:06:23;;;;;;;9.40;8.10;;;;;;;;;;5025460;28;20041;-73
2023/08/19 07:08:49;;;;;;;9.10;8.30;;;;;;;;;;5022351;28;20110;-74
2023/08/19 07:11:15;;;;;;;9.30;7.82;;;;;;;;;;5026531;28;20029;-73
2023/08/19 07:13:42;;;;;;;8.43;7.70;;;;;;;;;;5025708;28;20038;-74
2023/08/19 07:16:10;;;;;;;9.38;8.25;;;;;;;;;;5024142;28;20037;-66
2023/08/19 07:18:43;;;;;;;9.70;7.95;;;;;;;;;;5024028;28;20064;-70
2023/08/19 07:21:13;;;;;;;8.38;7.57;;;;;;;;;;5023935;28;20040;-70
2023/08/19 07:23:45;;;;;;;8.63;7.88;;;;;;;;;;5023906;28;20400;-69
2023/08/19 07:26:11;;;;;;;8.40;7.70;;;;;;;;;;5023801;28;20090;-71
2023/08/19 07:28:37;;;;;;;8.43;7.65;;;;;;;;;;5023436;28;20039;-73
2023/08/19 07:31:04;;;;;;;10.70;7.60;;;;;;;;;;5025868;28;20026;-73
2023/08/19 07:33:29;;;;;;;11.18;7.57;;;;;;;;;;5026075;28;20324;-73
2023/08/19 07:35:55;;;;;;;9.30;8.00;;;;;;;;;;4989972;28;20428;-73
2023/08/19 07:38:21;;;;;;;8.75;7.68;;;;;;;;;;5024290;28;20029;-73
2023/08/19 07:40:47;;;;;;;8.80;7.85;;;;;;;;;;5007891;28;20034;-73
2023/08/19 07:43:12;;;;;;;8.45;7.57;;;;;;;;;;5006435;28;20497;-73
2023/08/19 07:45:40;;;;;;;9.93;7.20;;;;;;;;;;5007214;28;20041;-73
2023/08/19 07:48:05;;;;;;;14.68;7.50;;;;;;;;;;5024053;28;20037;-73
2023/08/19 07:50:31;;;;;;;10.48;7.63;;;;;;;;;;5024262;28;20075;-73
2023/08/19 07:52:56;;;;;;;8.43;7.28;;;;;;;;;;5023831;28;20068;-73
2023/08/19 07:55:22;;;;;;;12.10;7.43;;;;;;;;;;5023385;28;20045;-73
2023/08/19 07:57:47;;;;;;;9.32;7.47;;;;;;;;;;5021343;28;20037;-73
2023/08/19 08:00:13;;;;;;;8.40;7.40;;;;;;;;;;5022793;28;20037;-73
2023/08/19 08:02:40;;;;;;;8.77;7.43;;;;;;;;;;5024135;28;20045;-73
2023/08/19 08:05:06;;;;;;;9.88;7.05;;;;;;;;;;5023012;28;20064;-73
2023/08/19 08:07:31;;;;;;;10.13;6.93;;;;;;;;;;5022684;28;20111;-73
2023/08/19 08:09:57;;;;;;;9.02;7.30;;;;;;;;;;5024853;28;20056;-73
2023/08/19 08:12:22;;;;;;;8.07;6.88;;;;;;;;;;5024634;28;20030;-73
2023/08/19 08:14:48;;;;;;;9.18;7.35;;;;;;;;;;5024688;28;20408;-73
2023/08/19 08:17:14;;;;;;;8.45;6.82;;;;;;;;;;5023631;28;20354;-73
2023/08/19 08:19:39;;;;;;;7.57;6.72;;;;;;;;;;5025171;28;20496;-74
2023/08/19 08:22:05;;;;;;;8.95;7.03;;;;;;;;;;5027946;28;20088;-73
2023/08/19 08:24:31;;;;;;;10.40;6.50;;;;;;;;;;5008751;28;20045;-74
2023/08/19 08:26:57;;;;;;;7.50;6.80;;;;;;;;;;5025931;28;20029;-73
2023/08/19 08:29:24;;;;;;;7.38;6.70;;;;;;;;;;5027714;28;20063;-73
2023/08/19 08:31:49;;;;;;;9.07;6.80;;;;;;;;;;5022568;28;20060;-73
2023/08/19 08:34:15;;;;;;;7.35;6.65;;;;;;;;;;5029038;28;20248;-73
2023/08/19 08:36:41;;;;;;;10.13;6.65;;;;;;;;;;5024948;28;20052;-73
2023/08/19 08:39:06;;;;;;;12.68;6.85;;;;;;;;;;5027224;28;20074;-73
2023/08/19 08:41:37;;;;;;;10.55;7.45;;;;;;;;;;5027029;28;20037;-73
2023/08/19 08:44:03;;;;;;;13.60;6.70;;;;;;;;;;5024690;28;20044;-73
2023/08/19 08:46:30;;;;;;;14.10;6.68;;;;;;;;;;5026234;28;20034;-73
2023/08/19 08:48:56;;;;;;;9.40;6.63;;;;;;;;;;5027121;28;20508;-73
2023/08/19 08:51:22;;;;;;;9.90;6.78;;;;;;;;;;5025690;28;20333;-73
2023/08/19 08:53:49;;;;;;;10.30;6.80;;;;;;;;;;5026837;28;20037;-73
2023/08/19 08:56:15;;;;;;;7.15;6.53;;;;;;;;;;5028985;28;20041;-74
2023/08/19 08:58:41;;;;;;;12.50;6.55;;;;;;;;;;5024473;28;20083;-73
2023/08/19 09:01:07;;;;;;;7.95;6.75;;;;;;;;;;5025181;28;20684;-73
2023/08/19 09:03:33;;;;;;;8.05;6.53;;;;;;;;;;5025606;28;20065;-73
2023/08/19 09:06:14;;;;;;;7.93;6.80;;;;;;;;;;5026993;28;20037;-74
2023/08/19 09:08:52;;;;;;;7.82;6.65;;;;;;;;;;5021415;28;20041;-73
2023/08/19 09:11:25;;;;;;;11.50;6.70;;;;;;;;;;5026439;28;20108;-73
2023/08/19 09:14:00;;;;;;;9.02;6.22;;;;;;;;;;5025586;28;20156;-73
2023/08/19 09:16:26;;;;;;;9.70;6.32;;;;;;;;;;5008485;28;20052;-73
2023/08/19 09:18:51;;;;;;;13.35;7.00;;;;;;;;;;5027656;28;20049;-73
2023/08/19 09:21:17;;;;;;;9.70;6.20;;;;;;;;;;5025976;28;20121;-73
2023/08/19 09:23:42;;;;;;;7.38;5.70;;;;;;;;;;5027092;28;20076;-73
2023/08/19 09:26:10;;;;;;;6.85;6.00;;;;;;;;;;5024215;28;20072;-73
2023/08/19 09:28:36;;;;;;;8.73;6.53;;;;;;;;;;5028058;28;20099;-73
2023/08/19 09:31:18;;;;;;;8.07;6.65;;;;;;;;;;5027840;28;20501;-73
2023/08/19 09:33:44;;;;;;;9.60;6.20;;;;;;;;;;5023912;28;20049;-74
2023/08/19 09:36:09;;;;;;;9.77;6.65;;;;;;;;;;5025192;28;20081;-74
2023/08/19 09:38:35;;;;;;;10.10;6.78;;;;;;;;;;5025335;28;20038;-73
2023/08/19 09:41:06;;;;;;;10.32;6.72;;;;;;;;;;5025491;28;20134;-74
2023/08/19 09:43:33;;;;;;;9.38;6.68;;;;;;;;;;5024031;28;20246;-73
2023/08/19 09:46:00;;;;;;;10.45;7.03;;;;;;;;;;5026798;28;20688;-73
2023/08/19 09:48:26;;;;;;;7.63;6.47;;;;;;;;;;5025697;28;20370;-73
2023/08/19 09:50:52;;;;;;;10.77;6.60;;;;;;;;;;5026434;28;20057;-74
2023/08/19 09:53:18;;;;;;;8.32;6.68;;;;;;;;;;5024968;28;20068;-74
2023/08/19 09:55:48;;;;;;;8.90;6.22;;;;;;;;;;5025447;28;20570;-74
2023/08/19 09:58:14;;;;;;;8.10;6.30;;;;;;;;;;5026987;28;20495;-73
2023/08/19 10:00:40;;;;;;;8.20;6.10;;;;;;;;;;5025303;28;20045;-74
2023/08/19 10:03:06;;;;;;;8.55;5.90;;;;;;;;;;5025879;28;20131;-74
2023/08/19 10:05:35;;;;;;;11.75;6.38;;;;;;;;;;5025641;28;20112;-74
2023/08/19 10:08:05;;;;;;;9.32;6.28;;;;;;;;;;5026767;28;20319;-74
2023/08/19 10:10:33;;;;;;;9.48;6.05;;;;;;;;;;5022758;28;20116;-74
2023/08/19 10:13:00;;;;;;;10.03;6.23;;;;;;;;;;5028127;28;20064;-73
2023/08/19 10:15:28;;;;;;;9.93;6.63;;;;;;;;;;5027058;28;20064;-73
2023/08/19 10:17:57;;;;;;;9.50;6.45;;;;;;;;;;5025201;28;20045;-74
2023/08/19 10:20:26;;;;;;;9.07;6.45;;;;;;;;;;5018782;28;20044;-73
2023/08/19 10:22:56;;;;;;;13.60;6.10;;;;;;;;;;5021964;28;20034;-74
2023/08/19 10:25:23;;;;;;;8.07;6.45;;;;;;;;;;5025233;28;20128;-74
2023/08/19 10:27:49;;;;;;;7.43;6.72;;;;;;;;;;5023420;28;20037;-74
2023/08/19 10:30:33;;;;;;;8.35;6.68;;;;;;;;;;5024178;28;20025;-74
2023/08/19 10:33:22;;;;;;;8.85;6.55;;;;;;;;;;5022687;28;20488;-74
2023/08/19 10:36:29;;;;;;;11.02;6.80;;;;;;;;;;5024393;28;20052;-74
2023/08/19 10:39:00;;;;;;;7.72;6.35;;;;;;;;;;4980977;28;20504;-74
2023/08/19 10:41:28;;;;;;;11.80;6.90;;;;;;;;;;4980878;28;20051;-74
2023/08/19 10:43:59;;;;;;;16.08;6.30;;;;;;;;;;4981128;28;20157;-74
2023/08/19 10:46:26;;;;;;;7.28;6.30;;;;;;;;;;4968679;28;20473;-74
2023/08/19 10:48:51;;;;;;;10.18;6.28;;;;;;;;;;4982800;28;20069;-74
2023/08/19 10:51:18;;;;;;;6.90;6.22;;;;;;;;;;4982075;28;20074;-74
2023/08/19 10:54:04;;;;;;;12.77;6.05;;;;;;;;;;4980628;28;20225;-74
2023/08/19 10:56:30;;;;;;;8.40;6.10;;;;;;;;;;4977670;28;20133;-74
2023/08/19 10:58:56;;;;;;;7.93;5.97;;;;;;;;;;4979198;28;20553;-74
2023/08/19 11:01:23;;;;;;;8.77;5.35;;;;;;;;;;4978624;28;20045;-75
2023/08/19 11:03:49;;;;;;;;;;;;;;;;;;4978232;28;20149;-74
2023/08/19 11:06:15;;;;;;;7.55;5.57;;;;;;;;;;4980626;28;20115;-74
2023/08/19 11:08:44;;;;;;;8.20;6.07;;;;;;;;;;4978585;28;20053;-74
2023/08/19 11:11:16;;;;;;;8.55;5.90;;;;;;;;;;4977040;28;20038;-74
2023/08/19 11:13:42;;;;;;;6.45;5.80;;;;;;;;;;5013997;28;20191;-74
2023/08/19 11:16:08;;;;;;;10.02;6.20;;;;;;;;;;5019476;28;20067;-74
2023/08/19 11:18:41;;;;;;;9.90;6.00;;;;;;;;;;5020263;28;20048;-74
2023/08/19 11:21:07;;;;;;;7.32;6.20;;;;;;;;;;5020434;28;20481;-74
2023/08/19 11:23:32;;;;;;;8.43;6.30;;;;;;;;;;5019356;28;20051;-74
2023/08/19 11:25:58;;;;;;;11.18;5.75;;;;;;;;;;5019973;28;20033;-74
2023/08/19 11:28:26;;;;;;;9.60;5.80;;;;;;;;;;5002750;28;20113;-74
2023/08/19 11:30:51;;;;;;;9.00;5.50;;;;;;;;;;5020840;28;20124;-74
2023/08/19 11:33:18;;;;;;;9.07;6.05;;;;;;;;;;5019251;28;20404;-74
2023/08/19 11:35:45;;;;;;;12.73;6.20;;;;;;;;;;5019295;28;20076;-74
2023/08/19 11:38:17;;;;;;;6.75;5.93;;;;;;;;;;5019212;28;20095;-74
2023/08/19 11:40:43;;;;;;;8.52;6.30;;;;;;;;;;5020810;28;20033;-74
2023/08/19 11:43:11;;;;;;;8.45;5.80;;;;;;;;;;5019972;28;20029;-74
2023/08/19 11:45:38;;;;;;;9.35;6.00;;;;;;;;;;5020175;28;20049;-74
2023/08/19 11:48:05;;;;;;;8.25;5.80;;;;;;;;;;5020531;28;20033;-74
2023/08/19 11:50:34;;;;;;;9.75;6.28;;;;;;;;;;5018760;28;20137;-75
2023/08/19 11:53:03;;;;;;;11.60;6.45;;;;;;;;;;5022905;28;20113;-74
2023/08/19 11:55:29;;;;;;;8.18;6.30;;;;;;;;;;5022205;28;20037;-74
2023/08/19 11:57:55;;;;;;;8.95;6.72;;;;;;;;;;5023126;28;20033;-74
2023/08/19 12:00:25;;;;;;;9.73;7.00;;;;;;;;;;5023324;28;20518;-74
2023/08/19 12:02:50;;;;;;;9.25;6.75;;;;;;;;;;5023117;28;20132;-74
2023/08/19 12:05:23;;;;;;;9.45;6.85;;;;;;;;;;5024796;28;20152;-74
2023/08/19 12:07:49;;;;;;;7.85;6.40;;;;;;;;;;5023933;28;20059;-74
2023/08/19 12:10:14;;;;;;;7.78;6.70;;;;;;;;;;5022028;28;20476;-75
2023/08/19 12:12:55;;;;;;;8.75;6.97;;;;;;;;;;5022978;28;20676;-74
2023/08/19 12:15:21;;;;;;;7.47;6.72;;;;;;;;;;5010655;28;20056;-75
2023/08/19 12:17:46;;;;;;;10.75;6.90;;;;;;;;;;5023677;28;20034;-74
2023/08/19 12:20:12;;;;;;;9.18;6.43;;;;;;;;;;5004630;28;20138;-75
2023/08/19 12:22:38;;;;;;;7.68;6.72;;;;;;;;;;5015227;28;20048;-74
2023/08/19 12:25:03;;;;;;;11.48;6.90;;;;;;;;;;5017124;28;20447;-74
2023/08/19 12:27:29;;;;;;;8.02;7.25;;;;;;;;;;5007608;28;20142;-74
2023/08/19 12:29:54;;;;;;;9.07;6.90;;;;;;;;;;5014235;28;20033;-73
2023/08/19 12:32:20;;;;;;;10.90;7.45;;;;;;;;;;5016238;28;20041;-75
2023/08/19 12:34:46;;;;;;;8.05;7.35;;;;;;;;;;5022060;28;20040;-74
2023/08/19 12:37:11;;;;;;;9.80;7.40;;;;;;;;;;5023158;28;20037;-74
2023/08/19 12:39:37;;;;;;;8.13;7.28;;;;;;;;;;5023639;28;20037;-74
2023/08/19 12:42:02;;;;;;;8.40;6.95;;;;;;;;;;5022117;28;20049;-74
2023/08/19 12:44:28;;;;;;;8.90;7.20;;;;;;;;;;5023769;28;20041;-74
2023/08/19 12:46:54;;;;;;;7.95;7.15;;;;;;;;;;5024026;28;20040;-74
2023/08/19 12:49:19;;;;;;;8.75;7.60;;;;;;;;;;5023352;28;20041;-74
2023/08/19 12:51:45;;;;;;;9.30;7.45;;;;;;;;;;5022274;28;20176;-74
2023/08/19 12:54:10;;;;;;;7.90;7.15;;;;;;;;;;5021263;28;20069;-74
2023/08/19 12:56:36;;;;;;;12.30;7.75;;;;;;;;;;5023598;28;20060;-74
2023/08/19 12:59:02;;;;;;;8.98;7.40;;;;;;;;;;5008887;28;20056;-74
2023/08/19 13:01:28;;;;;;;7.90;7.30;;;;;;;;;;5024916;28;20108;-74
2023/08/19 13:03:53;;;;;;;9.25;7.70;;;;;;;;;;5024495;28;20278;-74
2023/08/19 13:06:20;;;;;;;8.60;7.28;;;;;;;;;;5025814;28;20476;-74
2023/08/19 13:08:46;;;;;;;8.00;7.18;;;;;;;;;;5023592;28;20041;-74
2023/08/19 13:11:12;;;;;;;8.10;7.30;;;;;;;;;;5026332;28;20112;-74
2023/08/19 13:13:37;;;;;;;9.52;7.50;;;;;;;;;;5026232;28;20100;-74
2023/08/19 13:16:03;;;;;;;8.68;7.22;;;;;;;;;;5023541;28;20034;-74
2023/08/19 13:18:28;;;;;;;8.00;7.20;;;;;;;;;;5022139;28;20077;-74
2023/08/19 13:20:54;;;;;;;8.27;7.50;;;;;;;;;;5020668;28;20042;-75
2023/08/19 13:23:20;;;;;;;8.82;7.50;;;;;;;;;;5022422;28;20393;-74
2023/08/19 13:25:45;;;;;;;8.23;7.47;;;;;;;;;;5024696;28;20052;-73
2023/08/19 13:28:12;;;;;;;8.75;7.85;;;;;;;;;;5023862;28;20116;-74
2023/08/19 13:30:37;;;;;;;8.70;7.70;;;;;;;;;;5023967;28;20045;-74
2023/08/19 13:33:03;;;;;;;10.65;7.28;;;;;;;;;;5020485;28;20044;-74
2023/08/19 13:35:34;;;;;;;8.00;7.22;;;;;;;;;;5021333;28;20578;-74
2023/08/19 13:38:00;;;;;;;12.43;7.53;;;;;;;;;;5021437;28;20480;-74
2023/08/19 13:40:26;;;;;;;10.48;7.40;;;;;;;;;;5004993;28;20401;-74
2023/08/19 13:42:51;;;;;;;8.50;7.20;;;;;;;;;;5022524;28;20288;-74
2023/08/19 13:45:17;;;;;;;11.27;7.70;;;;;;;;;;5018704;28;20414;-73
2023/08/19 13:47:42;;;;;;;11.45;7.80;;;;;;;;;;5022092;28;20459;-74
2023/08/19 13:50:08;;;;;;;10.73;7.28;;;;;;;;;;5021222;28;20087;-74
2023/08/19 13:52:40;;;;;;;7.93;7.10;;;;;;;;;;5021080;28;20459;-73
2023/08/19 13:55:07;;;;;;;8.40;7.60;;;;;;;;;;5021873;28;20484;-73
2023/08/19 13:57:34;;;;;;;8.55;7.75;;;;;;;;;;5022362;28;20033;-73
2023/08/19 14:00:10;;;;;;;10.32;7.82;;;;;;;;;;5021123;28;20491;-75
2023/08/19 14:02:43;;;;;;;9.85;7.60;;;;;;;;;;5021530;28;20397;-73
2023/08/19 14:05:17;;;;;;;8.55;7.63;;;;;;;;;;5019892;28;20500;-73
2023/08/19 14:07:46;;;;;;;9.05;8.25;;;;;;;;;;5022036;28;20056;-74
2023/08/19 14:10:20;;;;;;;8.85;7.70;;;;;;;;;;5016835;28;20115;-74
2023/08/19 14:12:53;;;;;;;10.20;8.43;;;;;;;;;;5018995;28;20475;-74
2023/08/19 14:15:29;;;;;;;10.00;9.05;;;;;;;;;;5017567;28;20083;-74
2023/08/19 14:17:56;;;;;;;13.00;8.38;;;;;;;;;;5018272;28;20061;-73
2023/08/19 14:20:33;;;;;;;9.43;8.43;;;;;;;;;;5018981;28;20495;-74
2023/08/19 14:23:06;;;;;;;11.35;8.52;;;;;;;;;;5002033;28;20771;-74
2023/08/19 14:25:39;;;;;;;12.88;9.35;;;;;;;;;;5021849;28;20665;-73
2023/08/19 14:28:06;;;;;;;12.48;9.05;;;;;;;;;;5021624;28;20470;-74
2023/08/19 14:30:35;;;;;;;9.80;8.90;;;;;;;;;;5022346;28;20033;-73
2023/08/19 14:33:08;;;;;;;16.17;8.90;;;;;;;;;;5020898;28;20370;-75